Tupper Lake, NY (12986)

2:38 AM EDT on September 01, 2015 (GMT -0400)
The Wild Center | | Change Station
CLOSE
Current Station
Personal Weather Station
Location: Tupper Lake, NY
Elevation: 1640 ft
Nearby Weather Stations

Elev 1640 ft 44.22 °N, 74.44 °W | Updated 7 seconds ago

Fog
Fog
59.0 °F
Feels Like 59.0 °F
N
0.0
Wind Variable Wind from SSW
Gusts 0.0 mph

Today
High -- | Low -- °F
--% Chance of Precip.
Yesterday
High -- | Low -- °F
Precip. -- in
6:20 AM 7:34 PM
Waning Gibbous, 91% visible
Pressure 30.04 in
Visibility 0.2 miles
Clouds
Dew Point 58 °F
Humidity 96%
Rainfall 0.00 in
Snow Depth Not available.
UV Not available.
Pollen 9.30 out of 12
Air Quality Not available.
Flu Activity Not available.
SPECI KSLK 010631Z AUTO 00000KT 1/4SM FG VV001 11/11 A3004 RMK AO2 T01110111
Pressure 30.04 in
Visibility 0.2 miles
Clouds
Dew Point 58 °F
Humidity 96%
Rainfall 0.00 in
Snow Depth Not available.
UV Not available.
Pollen 9.30 out of 12
Air Quality Not available.
Flu Activity Not available.
SPECI KSLK 010631Z AUTO 00000KT 1/4SM FG VV001 11/11 A3004 RMK AO2 T01110111

10-Day Weather Forecast

×

Almanac

Astronomy

Sep. 01, 2015 Rise Set
Actual Time
Civil Twilight
Nautical Twilight
Astronomical Twilight
Moon
Length of Visible Light
Length of Day
Tomorrow will be .
, % of the Moon is Illuminated

Today's Extremes

State Highs State Lows

Community

WunderPhotos

Upload Photos

1,851,488 photos uploaded!

WunderBlogs® & News

Nearby

Air Quality

  Air Quality AQ Index Pollutant
Not available.

Snow Depth

Station Depth Elevation

Earthquake Activity

City Distance Mag. Time & Date
Minimum magnitude displayed is 2.5.

Coastal Water Temperatures

Place Temperature

Stations

Nearby Weather Stations

Station Location Temp. Windchill Dew Point Humidity Wind Precip. Elev Updated Type